createdAt,value
2023-05-24T00:02:27.364Z,98110.56
2023-05-24T00:04:54.173Z,98102.06
2023-05-24T00:07:23.878Z,98113.34
2023-05-24T00:09:52.826Z,98108.75
2023-05-24T00:12:21.499Z,98113.25
2023-05-24T00:14:48.035Z,98120.88
2023-05-24T00:17:14.962Z,98128.03
2023-05-24T00:19:41.499Z,98120.13
2023-05-24T00:22:08.040Z,98123.94
2023-05-24T00:24:34.619Z,98122.28
2023-05-24T00:27:01.388Z,98107.53
2023-05-24T00:29:30.786Z,98110.03
2023-05-24T00:31:58.776Z,98111.56
2023-05-24T00:34:25.371Z,98106.63
2023-05-24T00:36:54.936Z,98098.03
2023-05-24T00:39:24.562Z,98097.41
2023-05-24T00:41:52.308Z,98106.00
2023-05-24T00:44:18.834Z,98119.47
2023-05-24T00:46:45.601Z,98118.19
2023-05-24T00:49:12.379Z,98101.03
2023-05-24T00:51:39.055Z,98111.94
2023-05-24T00:54:06.933Z,98108.50
2023-05-24T00:56:33.864Z,98112.34
2023-05-24T00:59:01.954Z,98109.81
2023-05-24T01:01:31.271Z,98107.81
2023-05-24T01:03:59.565Z,98101.66
2023-05-24T01:06:28.135Z,98111.47
2023-05-24T01:09:08.845Z,98115.88
2023-05-24T01:11:44.581Z,98120.19
2023-05-24T01:14:14.398Z,98115.22
2023-05-24T01:16:53.837Z,98114.97
2023-05-24T01:19:46.934Z,98108.91
2023-05-24T01:22:28.170Z,98109.03
2023-05-24T01:25:33.334Z,98110.75
2023-05-24T01:28:00.926Z,98112.22
2023-05-24T01:30:28.801Z,98110.00
2023-05-24T01:32:58.364Z,98111.16
2023-05-24T01:35:28.124Z,98111.22
2023-05-24T01:37:58.147Z,98101.19
2023-05-24T01:40:28.124Z,98095.25
2023-05-24T01:43:08.816Z,98087.44
2023-05-24T01:46:03.393Z,98117.66
2023-05-24T01:49:11.244Z,98120.50
2023-05-24T01:51:44.268Z,98131.22
2023-05-24T01:54:13.454Z,98118.56
2023-05-24T01:56:42.758Z,98126.88
2023-05-24T01:59:09.784Z,98114.03
2023-05-24T02:01:36.552Z,98127.22
2023-05-24T02:04:03.738Z,98110.69
2023-05-24T02:06:30.492Z,98124.25
2023-05-24T02:09:00.184Z,98107.78
2023-05-24T02:11:29.833Z,98125.50
2023-05-24T02:13:59.172Z,98115.31
2023-05-24T02:16:27.238Z,98130.44
2023-05-24T02:18:54.023Z,98088.75
2023-05-24T02:21:20.890Z,98107.31
2023-05-24T02:23:47.445Z,98102.16
2023-05-24T02:26:14.719Z,98117.94
2023-05-24T02:28:41.428Z,98110.59
2023-05-24T02:31:08.627Z,98090.94
2023-05-24T02:33:37.442Z,98105.94
2023-05-24T02:36:04.102Z,98100.69
2023-05-24T02:38:31.937Z,98100.63
2023-05-24T02:41:01.704Z,98094.16
2023-05-24T02:43:31.349Z,98088.94
2023-05-24T02:46:00.492Z,98113.94
2023-05-24T02:48:29.297Z,98109.88
2023-05-24T02:50:55.902Z,98104.03
2023-05-24T02:53:22.462Z,98079.00
2023-05-24T02:55:49.008Z,98103.72
2023-05-24T02:58:17.687Z,98093.41
2023-05-24T03:00:44.412Z,98076.34
2023-05-24T03:03:11.124Z,98082.13
2023-05-24T03:05:37.740Z,98064.69
2023-05-24T03:08:04.335Z,98081.09
2023-05-24T03:10:33.777Z,98082.44
2023-05-24T03:13:03.469Z,98067.63
2023-05-24T03:15:31.829Z,98051.50
2023-05-24T03:17:58.364Z,98050.13
2023-05-24T03:20:25.078Z,98069.22
2023-05-24T03:22:51.654Z,98053.31
2023-05-24T03:25:18.810Z,98065.09
2023-05-24T03:27:45.701Z,98050.94
2023-05-24T03:30:12.665Z,98049.19
2023-05-24T03:32:39.259Z,98051.41
2023-05-24T03:35:06.319Z,98044.34
2023-05-24T03:37:32.878Z,98059.94
2023-05-24T03:39:59.408Z,98053.97
2023-05-24T03:42:25.983Z,98053.22
2023-05-24T03:44:52.567Z,98036.09
2023-05-24T03:47:19.121Z,98040.69
2023-05-24T03:49:45.801Z,98022.97
2023-05-24T03:52:12.405Z,98040.47
2023-05-24T03:54:38.985Z,98048.56
2023-05-24T03:57:05.836Z,98032.88
2023-05-24T03:59:36.389Z,98044.88
2023-05-24T04:02:06.004Z,98057.03
2023-05-24T04:04:37.053Z,98041.59
2023-05-24T04:07:08.058Z,98050.41
2023-05-24T04:09:34.684Z,98032.59
2023-05-24T04:12:01.302Z,98049.28
2023-05-24T04:14:27.869Z,98034.13
2023-05-24T04:16:55.274Z,98046.88
2023-05-24T04:19:21.892Z,98065.03
2023-05-24T04:21:49.949Z,98061.66
2023-05-24T04:24:16.621Z,98071.38
2023-05-24T04:26:43.186Z,98073.38
2023-05-24T04:29:10.193Z,98060.06
2023-05-24T04:31:36.924Z,98086.06
2023-05-24T04:34:05.766Z,98076.38
2023-05-24T04:36:35.506Z,98085.97
2023-05-24T04:39:06.598Z,98086.88
2023-05-24T04:41:35.859Z,98096.47
2023-05-24T04:44:02.472Z,98094.53
2023-05-24T04:46:29.108Z,98096.56
2023-05-24T04:48:55.719Z,98091.88
2023-05-24T04:51:22.667Z,98105.50
2023-05-24T04:53:49.257Z,98087.69
2023-05-24T04:56:17.041Z,98101.00
2023-05-24T04:58:43.587Z,98105.16
2023-05-24T05:01:10.370Z,98112.94
2023-05-24T05:03:40.165Z,98095.44
2023-05-24T05:06:10.524Z,98115.75
2023-05-24T05:08:40.220Z,98111.41
2023-05-24T05:11:09.979Z,98121.81
2023-05-24T05:13:39.571Z,98123.25
2023-05-24T05:16:09.434Z,98124.56
2023-05-24T05:18:39.210Z,98116.75
2023-05-24T05:21:08.866Z,98121.97
2023-05-24T05:23:39.255Z,98118.31
2023-05-24T05:26:11.712Z,98111.78
2023-05-24T05:28:41.128Z,98096.81
2023-05-24T05:31:08.961Z,98112.63
2023-05-24T05:33:36.654Z,98111.41
2023-05-24T05:36:03.640Z,98114.81
2023-05-24T05:38:30.218Z,98103.34
2023-05-24T05:40:56.736Z,98114.53
2023-05-24T05:43:23.287Z,98097.31
2023-05-24T05:45:49.804Z,98120.28
2023-05-24T05:48:16.479Z,98115.94
2023-05-24T05:50:43.111Z,98118.22
2023-05-24T05:53:10.061Z,98110.06
2023-05-24T05:55:36.734Z,98094.19
2023-05-24T05:58:03.362Z,98119.50
2023-05-24T06:00:30.017Z,98119.34
2023-05-24T06:02:56.857Z,98104.13
2023-05-24T06:05:23.481Z,98116.50
2023-05-24T06:07:50.091Z,98114.13
2023-05-24T06:10:16.874Z,98103.72
2023-05-24T06:12:43.409Z,98121.75
2023-05-24T06:15:14.175Z,98113.84
2023-05-24T06:17:44.030Z,98113.47
2023-05-24T06:20:16.994Z,98095.19
2023-05-24T06:22:43.841Z,98120.53
2023-05-24T06:25:19.107Z,98117.22
2023-05-24T06:27:45.877Z,98122.00
2023-05-24T06:30:13.589Z,98122.25
2023-05-24T06:32:43.173Z,98102.97
2023-05-24T06:35:12.779Z,98113.38
2023-05-24T06:37:42.433Z,98124.38
2023-05-24T06:40:14.853Z,98121.25
2023-05-24T06:42:41.435Z,98130.97
2023-05-24T06:45:10.777Z,98121.75
2023-05-24T06:47:37.405Z,98114.16
2023-05-24T06:50:05.045Z,98135.59
2023-05-24T06:52:31.638Z,98110.78
2023-05-24T06:54:58.153Z,98123.16
2023-05-24T06:57:25.261Z,98116.94
2023-05-24T06:59:52.008Z,98125.91
2023-05-24T07:02:18.650Z,98135.53
2023-05-24T07:04:46.128Z,98144.03
2023-05-24T07:07:14.466Z,98127.81
2023-05-24T07:09:42.474Z,98139.69
2023-05-24T07:12:11.193Z,98139.06
2023-05-24T07:14:40.425Z,98148.94
2023-05-24T07:17:06.987Z,98133.06
2023-05-24T07:19:35.890Z,98151.75
2023-05-24T07:22:02.737Z,98146.19
2023-05-24T07:24:29.485Z,98156.25
2023-05-24T07:26:58.948Z,98154.47
2023-05-24T07:29:26.151Z,98154.34
2023-05-24T07:31:52.818Z,98156.22
2023-05-24T07:34:21.221Z,98154.25
2023-05-24T07:36:49.570Z,98154.16
2023-05-24T07:39:16.672Z,98150.72
2023-05-24T07:41:43.587Z,98153.47
2023-05-24T07:44:13.822Z,98152.16
2023-05-24T07:46:41.271Z,98154.28
2023-05-24T07:49:10.520Z,98156.69
2023-05-24T07:51:38.363Z,98156.91
2023-05-24T07:54:05.877Z,98171.75
2023-05-24T07:56:32.362Z,98163.38
2023-05-24T07:59:04.988Z,98147.94
2023-05-24T08:01:34.587Z,98165.72
2023-05-24T08:04:04.185Z,98140.22
2023-05-24T08:06:32.734Z,98153.44
2023-05-24T08:08:59.370Z,98145.66
2023-05-24T08:11:26.605Z,98157.03
2023-05-24T08:13:53.209Z,98157.66
2023-05-24T08:16:19.805Z,98158.72
2023-05-24T08:18:46.370Z,98158.09
2023-05-24T08:21:12.994Z,98147.19
2023-05-24T08:23:42.544Z,98163.88
2023-05-24T08:26:12.317Z,98168.59
2023-05-24T08:28:42.044Z,98173.06
2023-05-24T08:31:12.590Z,98159.06
2023-05-24T08:33:43.038Z,98171.41
2023-05-24T08:36:12.479Z,98169.75
2023-05-24T08:38:42.014Z,98168.78
2023-05-24T08:41:11.602Z,98163.44
2023-05-24T08:43:39.663Z,98152.75
2023-05-24T08:46:09.844Z,98169.44
2023-05-24T08:48:45.183Z,98164.47
2023-05-24T08:51:14.034Z,98163.25
2023-05-24T08:53:42.086Z,98174.97
2023-05-24T08:56:10.561Z,98179.47
2023-05-24T08:58:47.250Z,98171.34
2023-05-24T09:01:16.673Z,98166.25
2023-05-24T09:03:45.319Z,98147.84
2023-05-24T09:06:13.417Z,98159.41
2023-05-24T09:08:43.745Z,98153.19
2023-05-24T09:11:16.401Z,98151.34
2023-05-24T09:13:45.640Z,98156.59
2023-05-24T09:16:12.560Z,98158.66
2023-05-24T09:18:42.838Z,98144.34
2023-05-24T09:21:13.250Z,98135.13
2023-05-24T09:23:43.305Z,98156.06
2023-05-24T09:26:13.332Z,98151.38
2023-05-24T09:28:42.084Z,98153.91
2023-05-24T09:31:13.726Z,98157.28
2023-05-24T09:33:43.026Z,98157.41
2023-05-24T09:36:17.207Z,98153.03
2023-05-24T09:38:43.747Z,98161.78
2023-05-24T09:41:13.288Z,98157.41
2023-05-24T09:43:58.289Z,98162.13
2023-05-24T09:46:24.839Z,98150.94
2023-05-24T09:48:58.399Z,98155.59
2023-05-24T09:51:25.190Z,98151.84
2023-05-24T09:53:54.517Z,98153.25
2023-05-24T09:56:23.737Z,98158.97
2023-05-24T09:58:51.583Z,98152.47
2023-05-24T10:01:19.178Z,98149.44
2023-05-24T10:03:57.470Z,98154.13
2023-05-24T10:06:25.359Z,98149.25
2023-05-24T10:08:54.377Z,98155.00
2023-05-24T10:11:21.317Z,98151.69
2023-05-24T10:13:49.035Z,98151.69
2023-05-24T10:16:16.493Z,98155.34
2023-05-24T10:18:43.013Z,98161.00
2023-05-24T10:21:13.701Z,98159.75
2023-05-24T10:23:45.058Z,98165.88
2023-05-24T10:26:14.279Z,98156.81
2023-05-24T10:28:53.132Z,98162.69
2023-05-24T10:31:26.597Z,98156.28
2023-05-24T10:34:04.085Z,98148.84
2023-05-24T10:36:35.092Z,98150.47
2023-05-24T10:39:01.958Z,98146.38
2023-05-24T10:41:28.965Z,98142.59
2023-05-24T10:44:09.247Z,98148.16
2023-05-24T10:46:45.250Z,98139.44
2023-05-24T10:49:13.829Z,98128.94
2023-05-24T10:51:45.394Z,98124.03
2023-05-24T10:54:14.198Z,98127.47
2023-05-24T10:56:43.156Z,98128.09
2023-05-24T10:59:23.022Z,98126.28
2023-05-24T11:01:57.933Z,98121.63
2023-05-24T11:04:25.170Z,98116.22
2023-05-24T11:07:03.144Z,98124.38
2023-05-24T11:09:30.191Z,98122.47
2023-05-24T11:12:09.653Z,98122.75
2023-05-24T11:14:48.124Z,98110.84
2023-05-24T11:17:14.706Z,98117.66
2023-05-24T11:19:54.741Z,98117.84
2023-05-24T11:22:24.636Z,98122.00
2023-05-24T11:24:53.238Z,98123.38
2023-05-24T11:27:20.005Z,98126.06
2023-05-24T11:29:48.343Z,98112.22
2023-05-24T11:32:19.895Z,98117.88
2023-05-24T11:34:47.555Z,98114.56
2023-05-24T11:37:17.727Z,98112.75
2023-05-24T11:39:51.220Z,98110.31
2023-05-24T11:42:18.143Z,98111.38
2023-05-24T11:44:48.496Z,98104.03
2023-05-24T11:47:15.598Z,98110.59
2023-05-24T11:49:50.315Z,98104.59
2023-05-24T11:52:17.421Z,98094.50
2023-05-24T11:54:44.115Z,98100.44
2023-05-24T11:57:14.414Z,98097.84
2023-05-24T11:59:43.984Z,98095.84
2023-05-24T12:02:12.721Z,98095.34
2023-05-24T12:04:39.333Z,98091.59
2023-05-24T12:07:14.058Z,98088.09
2023-05-24T12:09:43.236Z,98083.19
2023-05-24T12:12:14.460Z,98085.34
2023-05-24T12:14:42.322Z,98084.75
2023-05-24T12:17:16.057Z,98085.25
2023-05-24T12:19:48.644Z,98084.63
2023-05-24T12:22:15.333Z,98080.88
2023-05-24T12:24:43.486Z,98072.19
2023-05-24T12:27:13.459Z,98078.19
2023-05-24T12:29:41.975Z,98076.72
2023-05-24T12:32:16.908Z,98071.19
2023-05-24T12:34:45.342Z,98077.88
2023-05-24T12:37:14.524Z,98073.75
2023-05-24T12:39:45.295Z,98069.91
2023-05-24T12:42:14.115Z,98068.13
2023-05-24T12:44:40.992Z,98066.09
2023-05-24T12:47:08.842Z,98069.56
2023-05-24T12:49:36.004Z,98065.47
2023-05-24T12:52:02.695Z,98068.06
2023-05-24T12:54:29.967Z,98074.34
2023-05-24T12:56:57.814Z,98074.41
2023-05-24T12:59:25.592Z,98067.09
2023-05-24T13:01:52.685Z,98067.03
2023-05-24T13:04:22.121Z,98062.59
2023-05-24T13:06:49.337Z,98044.63
2023-05-24T13:09:20.782Z,98059.09
2023-05-24T13:11:47.405Z,98054.44
2023-05-24T13:14:18.152Z,98063.06
2023-05-24T13:16:48.125Z,98050.75
2023-05-24T13:19:17.866Z,98048.72
2023-05-24T13:21:45.734Z,98056.66
2023-05-24T13:24:17.941Z,98039.97
2023-05-24T13:26:46.091Z,98040.97
2023-05-24T13:31:47.153Z,98035.91
2023-05-24T13:34:15.646Z,98036.56
2023-05-24T13:36:45.844Z,98043.41
2023-05-24T13:39:16.743Z,98039.44
2023-05-24T13:41:45.453Z,98030.31
2023-05-24T13:44:18.399Z,98028.56
2023-05-24T13:46:46.062Z,98027.47
2023-05-24T13:49:13.666Z,98015.13
2023-05-24T13:51:40.628Z,98018.78
2023-05-24T13:54:08.128Z,98010.63
2023-05-24T13:56:35.929Z,98014.53
2023-05-24T13:59:03.765Z,98017.06
2023-05-24T14:01:31.267Z,98012.41
2023-05-24T14:03:58.281Z,98011.41
2023-05-24T14:06:24.925Z,98010.63
2023-05-24T14:08:52.161Z,98018.09
2023-05-24T14:11:19.699Z,98005.97
2023-05-24T14:16:15.987Z,97992.16
2023-05-24T14:18:44.511Z,97989.28
2023-05-24T14:21:11.686Z,97993.16
2023-05-24T14:23:38.873Z,98003.16
2023-05-24T14:26:05.623Z,97991.19
2023-05-24T14:28:32.117Z,97986.00
2023-05-24T14:30:58.688Z,97993.50
2023-05-24T14:33:25.214Z,97977.94
2023-05-24T14:35:51.936Z,97995.88
2023-05-24T14:38:18.629Z,97984.66
2023-05-24T14:40:48.074Z,97983.66
2023-05-24T14:43:15.530Z,97972.66
2023-05-24T14:45:42.865Z,97975.88
2023-05-24T14:48:11.755Z,97974.03
2023-05-24T14:50:40.088Z,97977.09
2023-05-24T14:53:12.033Z,97977.09
2023-05-24T14:55:41.100Z,97978.72
2023-05-24T14:58:09.247Z,97977.00
2023-05-24T15:00:36.629Z,97981.16
2023-05-24T15:03:03.534Z,97986.50
2023-05-24T15:05:30.230Z,97995.66
2023-05-24T15:07:56.881Z,97982.56
2023-05-24T15:10:23.454Z,97966.06
2023-05-24T15:12:51.914Z,97970.47
2023-05-24T15:15:19.087Z,97964.50
2023-05-24T15:17:48.485Z,97957.00
2023-05-24T15:20:19.589Z,97958.63
2023-05-24T15:22:46.381Z,97957.78
2023-05-24T15:25:15.343Z,97961.88
2023-05-24T15:27:41.859Z,97956.94
2023-05-24T15:30:08.507Z,97959.91
2023-05-24T15:32:35.189Z,97958.88
2023-05-24T15:35:01.854Z,97961.59
2023-05-24T15:37:28.550Z,97962.72
2023-05-24T15:39:55.094Z,97957.81
2023-05-24T15:42:23.566Z,97960.81
2023-05-24T15:44:50.610Z,97961.91
2023-05-24T15:47:17.572Z,97957.81
2023-05-24T15:49:45.781Z,97953.19
2023-05-24T15:52:14.985Z,97960.53
2023-05-24T15:54:46.682Z,97938.97
2023-05-24T15:57:16.572Z,97968.06
2023-05-24T15:59:45.195Z,97964.19
2023-05-24T16:02:11.743Z,97963.63
2023-05-24T16:04:38.883Z,97958.81
2023-05-24T16:07:06.345Z,97962.06
2023-05-24T16:09:32.859Z,97952.03
2023-05-24T16:12:00.932Z,97959.69
2023-05-24T16:14:27.774Z,97958.84
2023-05-24T16:16:58.578Z,97958.41
2023-05-24T16:19:25.775Z,97950.03
2023-05-24T16:21:52.315Z,97951.72
2023-05-24T16:24:19.660Z,97952.56
2023-05-24T16:26:46.396Z,97954.25
2023-05-24T16:29:15.082Z,97956.88
2023-05-24T16:31:41.706Z,97941.69
2023-05-24T16:34:08.245Z,97950.13
2023-05-24T16:36:34.792Z,97948.81
2023-05-24T16:39:01.322Z,97964.84
2023-05-24T16:41:34.661Z,97958.16
2023-05-24T16:44:01.164Z,97955.88
2023-05-24T16:46:27.732Z,97943.53
2023-05-24T16:48:54.289Z,97959.56
2023-05-24T16:51:20.885Z,97963.84
2023-05-24T16:53:50.870Z,97947.22
2023-05-24T16:56:20.398Z,97949.44
2023-05-24T16:58:49.769Z,97955.59
2023-05-24T17:01:19.472Z,97961.69
2023-05-24T17:03:47.752Z,97958.00
2023-05-24T17:06:14.328Z,97957.59
2023-05-24T17:08:41.787Z,97956.03
2023-05-24T17:11:08.302Z,97962.28
2023-05-24T17:13:34.903Z,97957.63
2023-05-24T17:16:03.565Z,97964.91
2023-05-24T17:18:30.264Z,97963.97
2023-05-24T17:20:58.668Z,97955.41
2023-05-24T17:23:26.293Z,97961.09
2023-05-24T17:25:55.408Z,97961.81
2023-05-24T17:28:28.853Z,97954.34
2023-05-24T17:30:59.832Z,97952.09
2023-05-24T17:33:29.152Z,97962.56
2023-05-24T17:35:56.918Z,97967.25
2023-05-24T17:38:24.883Z,97979.91
2023-05-24T17:40:56.799Z,97979.19
2023-05-24T17:43:24.023Z,97970.63
2023-05-24T17:45:51.117Z,97975.34
2023-05-24T17:48:20.232Z,97983.22
2023-05-24T17:50:49.473Z,97976.06
2023-05-24T17:53:30.826Z,97972.22
2023-05-24T17:55:58.298Z,97987.31
2023-05-24T17:58:25.198Z,97991.81
2023-05-24T18:00:51.955Z,97989.78
2023-05-24T18:03:18.768Z,97992.44
2023-05-24T18:05:49.135Z,98007.38
2023-05-24T18:08:19.419Z,97995.91
2023-05-24T18:10:48.663Z,97996.72
2023-05-24T18:13:17.606Z,98002.75
2023-05-24T18:15:44.635Z,98002.41
2023-05-24T18:18:12.254Z,97996.97
2023-05-24T18:20:39.566Z,98011.66
2023-05-24T18:23:06.652Z,98007.84
2023-05-24T18:25:33.410Z,98008.69
2023-05-24T18:28:00.541Z,98019.28
2023-05-24T18:30:55.751Z,97986.50
2023-05-24T18:33:22.818Z,98023.59
2023-05-24T18:35:56.568Z,98021.25
2023-05-24T18:38:23.111Z,98022.84
2023-05-24T18:40:49.602Z,98015.09
2023-05-24T18:43:19.030Z,98028.78
2023-05-24T18:45:50.138Z,98023.28
2023-05-24T18:48:19.620Z,98035.53
2023-05-24T18:50:50.184Z,98038.88
2023-05-24T18:53:19.579Z,98033.22
2023-05-24T18:55:49.737Z,98027.75
2023-05-24T18:58:19.378Z,98037.13
2023-05-24T19:00:50.414Z,98040.03
2023-05-24T19:03:22.372Z,98031.47
2023-05-24T19:05:49.446Z,98031.47
2023-05-24T19:08:19.661Z,98038.06
2023-05-24T19:10:49.194Z,98045.13
2023-05-24T19:13:19.464Z,98049.69
2023-05-24T19:15:48.837Z,98057.94
2023-05-24T19:18:17.579Z,98055.69
2023-05-24T19:20:44.413Z,98035.56
2023-05-24T19:23:11.057Z,98045.66
2023-05-24T19:25:41.977Z,98051.88
2023-05-24T19:28:08.873Z,98066.88
2023-05-24T19:30:36.869Z,98051.69
2023-05-24T19:33:03.726Z,98057.44
2023-05-24T19:35:30.372Z,98060.31
2023-05-24T19:37:56.889Z,98067.28
2023-05-24T19:40:23.491Z,98075.56
2023-05-24T19:42:50.140Z,98068.72
2023-05-24T19:45:19.756Z,98076.94
2023-05-24T19:47:49.196Z,98080.00
2023-05-24T19:50:19.296Z,98102.63
2023-05-24T19:52:48.555Z,98095.44
2023-05-24T19:55:17.980Z,98097.50
2023-05-24T19:57:46.942Z,98076.03
2023-05-24T20:00:13.960Z,98101.59
2023-05-24T20:02:40.665Z,98100.94
2023-05-24T20:05:07.681Z,98104.22
2023-05-24T20:07:34.206Z,98099.69
2023-05-24T20:10:01.161Z,98092.38
2023-05-24T20:12:28.527Z,98099.78
2023-05-24T20:14:55.060Z,98103.66
2023-05-24T20:17:21.611Z,98096.38
2023-05-24T20:19:48.170Z,98106.19
2023-05-24T20:22:16.801Z,98104.72
2023-05-24T20:24:43.420Z,98113.34
2023-05-24T20:27:09.943Z,98115.19
2023-05-24T20:29:36.877Z,98116.66
2023-05-24T20:32:03.621Z,98120.34
2023-05-24T20:34:30.751Z,98113.53
2023-05-24T20:36:57.348Z,98116.19
2023-05-24T20:39:23.939Z,98120.50
2023-05-24T20:41:50.678Z,98108.72
2023-05-24T20:44:17.948Z,98112.03
2023-05-24T20:46:44.444Z,98125.38
2023-05-24T20:49:11.185Z,98130.28
2023-05-24T20:51:37.735Z,98130.91
2023-05-24T20:54:04.512Z,98117.50
2023-05-24T20:56:30.987Z,98134.38
2023-05-24T20:58:59.877Z,98117.91
2023-05-24T21:01:27.000Z,98130.56
2023-05-24T21:03:53.569Z,98129.97
2023-05-24T21:06:22.822Z,98122.41
2023-05-24T21:08:49.396Z,98131.22
2023-05-24T21:11:16.372Z,98119.88
2023-05-24T21:13:42.898Z,98130.19
2023-05-24T21:16:11.988Z,98128.97
2023-05-24T21:18:39.114Z,98112.53
2023-05-24T21:21:06.518Z,98113.13
2023-05-24T21:23:33.035Z,98111.88
2023-05-24T21:25:59.570Z,98124.03
2023-05-24T21:28:27.196Z,98135.97
2023-05-24T21:30:53.740Z,98125.00
2023-05-24T21:33:20.568Z,98132.00
2023-05-24T21:35:49.280Z,98118.97
2023-05-24T21:38:15.843Z,98124.53
2023-05-24T21:40:42.464Z,98129.66
2023-05-24T21:43:12.490Z,98125.72
2023-05-24T21:45:39.497Z,98132.16
2023-05-24T21:48:06.459Z,98126.56
2023-05-24T21:50:34.334Z,98125.03
2023-05-24T21:53:02.055Z,98124.13
2023-05-24T21:55:29.591Z,98130.41
2023-05-24T21:57:56.922Z,98138.03
2023-05-24T22:00:23.565Z,98117.31
2023-05-24T22:02:51.062Z,98115.63
2023-05-24T22:05:20.600Z,98118.84
2023-05-24T22:07:47.170Z,98128.53
2023-05-24T22:10:13.765Z,98121.47
2023-05-24T22:12:40.457Z,98113.38
2023-05-24T22:15:07.586Z,98106.53
2023-05-24T22:17:36.997Z,98121.94
2023-05-24T22:20:06.042Z,98104.72
2023-05-24T22:22:32.721Z,98127.72
2023-05-24T22:25:02.293Z,98128.88
2023-05-24T22:27:29.586Z,98135.22
2023-05-24T22:29:56.245Z,98115.34
2023-05-24T22:32:23.223Z,98129.47
2023-05-24T22:34:52.275Z,98123.00
2023-05-24T22:37:19.163Z,98106.88
2023-05-24T22:39:45.746Z,98124.88
2023-05-24T22:42:12.315Z,98132.22
2023-05-24T22:44:38.865Z,98128.66
2023-05-24T22:47:05.839Z,98132.63
2023-05-24T22:49:34.146Z,98127.22
2023-05-24T22:52:01.006Z,98121.44
2023-05-24T22:54:27.588Z,98117.13
2023-05-24T22:56:54.118Z,98113.25
2023-05-24T22:59:20.657Z,98112.41
2023-05-24T23:01:47.359Z,98133.22
2023-05-24T23:04:20.948Z,98130.63
2023-05-24T23:06:49.416Z,98138.72
2023-05-24T23:09:17.582Z,98124.78
2023-05-24T23:11:44.450Z,98123.41
2023-05-24T23:14:11.367Z,98118.47
2023-05-24T23:16:45.420Z,98120.84
2023-05-24T23:19:18.252Z,98127.97
2023-05-24T23:21:45.228Z,98115.34
2023-05-24T23:24:14.605Z,98109.03
2023-05-24T23:26:41.964Z,98119.78
2023-05-24T23:29:08.963Z,98103.19
2023-05-24T23:31:35.949Z,98117.41
2023-05-24T23:34:02.746Z,98116.94
2023-05-24T23:36:29.244Z,98116.28
2023-05-24T23:38:56.226Z,98101.50
2023-05-24T23:41:22.747Z,98094.38
2023-05-24T23:43:49.379Z,98119.78
2023-05-24T23:46:17.112Z,98118.13
2023-05-24T23:48:43.774Z,98109.41
2023-05-24T23:51:10.588Z,98109.22
2023-05-24T23:53:37.130Z,98113.53
2023-05-24T23:56:03.839Z,98113.38
2023-05-24T23:58:30.409Z,98095.72
